Time;durP1;ratioP1;P1;durP2;ratioP2;P2;SDS_P1;SDS_P2;PMS_P1;PMS_P2;Temp;Humidity;BMP_temperature;BMP_pressure;BME280_temperature;BME280_humidity;BME280_pressure;Samples;Min_cycle;Max_cycle;Signal;HPM_P1;HPM_P2
2024/04/19 00:01:56;;;;;;;12.60;9.30;;;;;;;3.28;70.16;100099.48;111264;1252;21997;-71
2024/04/19 00:04:25;;;;;;;11.10;9.20;;;;;;;3.30;70.30;100096.78;111203;1252;21949;-72
2024/04/19 00:06:55;;;;;;;12.60;8.90;;;;;;;3.28;70.27;100100.70;111296;1252;21963;-71
2024/04/19 00:09:24;;;;;;;11.40;8.80;;;;;;;3.29;70.32;100100.52;111292;1252;24394;-71
2024/04/19 00:11:53;;;;;;;16.30;9.10;;;;;;;3.28;70.26;100095.16;111285;1252;21961;-72
2024/04/19 00:14:22;;;;;;;14.30;9.70;;;;;;;3.26;70.25;100094.38;111419;1252;22041;-72
2024/04/19 00:16:56;;;;;;;13.90;9.60;;;;;;;3.23;70.18;100094.70;111417;1252;21918;-72
2024/04/19 00:19:25;;;;;;;16.20;10.00;;;;;;;3.20;70.33;100094.48;111457;1253;23569;-72
2024/04/19 00:21:54;;;;;;;12.60;9.80;;;;;;;3.19;70.59;100089.46;111459;1252;23108;-72
2024/04/19 00:24:23;;;;;;;15.30;11.00;;;;;;;3.20;70.61;100089.42;111450;1252;21952;-72
2024/04/19 00:26:52;;;;;;;16.60;10.20;;;;;;;3.19;70.72;100092.73;111351;1252;21942;-70
2024/04/19 00:29:44;;;;;;;14.30;10.40;;;;;;;3.18;70.65;100089.35;111308;1252;21956;-72
2024/04/19 00:32:12;;;;;;;16.30;12.60;;;;;;;3.18;70.74;100088.61;111346;1253;22122;-71
2024/04/19 00:34:41;;;;;;;14.70;11.50;;;;;;;3.18;70.79;100087.22;111245;1252;21963;-72
2024/04/19 00:37:10;;;;;;;18.90;13.20;;;;;;;3.19;70.88;100081.45;111386;1252;23709;-72
2024/04/19 00:39:39;;;;;;;18.80;13.90;;;;;;;3.18;70.85;100077.65;111309;1252;21967;-72
2024/04/19 00:42:08;;;;;;;19.00;13.30;;;;;;;3.18;70.98;100078.55;111346;1252;21955;-72
2024/04/19 00:44:37;;;;;;;19.20;12.60;;;;;;;3.18;71.04;100078.55;110986;1253;22186;-73
2024/04/19 00:47:06;;;;;;;15.50;10.90;;;;;;;3.22;70.95;100076.28;111311;1252;22013;-72
2024/04/19 00:49:35;;;;;;;14.90;10.90;;;;;;;3.22;71.12;100076.61;111307;1253;23601;-71
2024/04/19 00:52:06;;;;;;;13.00;10.30;;;;;;;3.26;71.25;100076.10;111017;1252;22093;-72
2024/04/19 00:54:36;;;;;;;15.40;10.70;;;;;;;3.29;71.33;100070.73;111334;1253;197604;-72
2024/04/19 00:57:06;;;;;;;11.60;8.80;;;;;;;3.32;71.25;100068.51;111009;1253;21957;-72
2024/04/19 00:59:35;;;;;;;13.50;9.90;;;;;;;3.37;71.09;100067.78;111043;1252;21963;-72
2024/04/19 01:02:05;;;;;;;13.00;8.90;;;;;;;3.36;71.21;100068.33;111305;1253;22240;-72
2024/04/19 01:04:34;;;;;;;12.40;8.30;;;;;;;3.37;71.20;100064.12;111018;1253;22191;-72
2024/04/19 01:07:03;;;;;;;11.00;8.20;;;;;;;3.38;71.26;100066.48;111050;1253;22135;-71
2024/04/19 01:09:32;;;;;;;12.70;8.50;;;;;;;3.39;71.12;100060.39;111270;1253;21939;-70
2024/04/19 01:12:01;;;;;;;10.40;7.70;;;;;;;3.40;71.11;100061.04;111316;1252;21954;-71
2024/04/19 01:14:30;;;;;;;12.30;9.60;;;;;;;3.40;71.17;100058.77;111279;1252;23791;-71
2024/04/19 01:16:59;;;;;;;13.10;9.10;;;;;;;3.38;71.20;100055.88;111308;1252;22012;-73
2024/04/19 01:19:28;;;;;;;13.00;10.30;;;;;;;3.37;71.13;100055.60;111262;1252;21963;-73
2024/04/19 01:21:57;;;;;;;21.70;10.00;;;;;;;3.36;71.32;100047.10;111025;1252;21968;-71
2024/04/19 01:24:52;;;;;;;13.00;9.60;;;;;;;3.35;71.54;100045.95;111364;1252;22141;-73
2024/04/19 01:27:21;;;;;;;13.30;9.20;;;;;;;3.32;71.53;100044.14;111315;1253;21951;-72
2024/04/19 01:29:50;;;;;;;14.30;10.50;;;;;;;3.32;71.57;100042.61;111374;1253;21933;-72
2024/04/19 01:32:19;;;;;;;14.80;10.40;;;;;;;3.34;71.70;100038.84;111293;1252;21963;-73
2024/04/19 01:34:48;;;;;;;12.40;9.70;;;;;;;3.39;71.70;100038.77;111367;1252;22735;-74
2024/04/19 01:37:16;;;;;;;12.70;9.70;;;;;;;3.44;71.42;100041.50;111348;1253;21948;-73
2024/04/19 01:39:45;;;;;;;15.80;8.60;;;;;;;3.47;71.29;100033.38;111368;1252;21951;-70
2024/04/19 01:42:14;;;;;;;15.70;10.60;;;;;;;3.48;71.24;100029.67;111308;1252;21950;-73
2024/04/19 01:45:03;;;;;;;11.00;8.70;;;;;;;3.47;71.23;100030.57;111346;1252;22035;-72
2024/04/19 01:47:32;;;;;;;15.00;10.00;;;;;;;3.47;71.13;100030.24;111337;1252;21985;-72
2024/04/19 01:50:01;;;;;;;9.60;8.50;;;;;;;3.47;70.92;100029.38;111037;1252;22678;-72
2024/04/19 01:52:29;;;;;;;10.30;8.60;;;;;;;3.43;71.02;100031.44;111362;1252;21952;-73
2024/04/19 01:54:58;;;;;;;12.40;11.10;;;;;;;3.41;71.01;100029.99;111497;1252;22046;-73
2024/04/19 01:57:27;;;;;;;12.60;10.00;;;;;;;3.39;70.93;100024.70;111299;1252;22053;-72
2024/04/19 01:59:56;;;;;;;10.60;8.50;;;;;;;3.37;71.04;100020.42;111314;1252;21972;-72
2024/04/19 02:02:26;;;;;;;10.20;8.60;;;;;;;3.36;71.07;100021.89;110983;1252;21953;-72
2024/04/19 02:04:56;;;;;;;10.00;7.60;;;;;;;3.34;71.04;100018.98;111017;1252;21959;-73
2024/04/19 02:07:25;;;;;;;8.50;6.80;;;;;;;3.33;71.19;100014.02;111256;1253;21935;-73
2024/04/19 02:09:53;;;;;;;9.00;7.10;;;;;;;3.35;71.13;100014.42;111266;1252;23089;-71
2024/04/19 02:12:22;;;;;;;8.90;6.80;;;;;;;3.34;71.19;100013.98;111295;1252;22047;-72
2024/04/19 02:14:53;;;;;;;9.50;8.40;;;;;;;3.31;71.13;100011.33;111241;1253;21958;-71
2024/04/19 02:17:22;;;;;;;10.20;8.00;;;;;;;3.30;71.21;100007.73;111327;1253;21961;-74
2024/04/19 02:19:51;;;;;;;11.30;8.40;;;;;;;3.29;71.41;100005.86;111369;1252;22470;-71
2024/04/19 02:22:20;;;;;;;8.50;7.60;;;;;;;3.27;71.47;99996.71;111254;1252;22725;-72
2024/04/19 02:24:48;;;;;;;9.50;7.50;;;;;;;3.26;71.55;99994.34;111276;1251;22043;-72
2024/04/19 02:30:52;;;;;;;10.70;8.20;;;;;;;3.23;71.74;99986.13;111291;1252;22065;-72
2024/04/19 02:32:54;;;;;;;9.20;7.30;;;;;;;3.24;71.87;99971.08;111203;1253;21951;-72
2024/04/19 02:35:23;;;;;;;8.60;7.30;;;;;;;3.27;71.84;99972.54;111021;1252;21963;-71
2024/04/19 02:37:52;;;;;;;8.60;7.70;;;;;;;3.31;71.80;99968.16;111287;1252;21963;-70
2024/04/19 02:40:21;;;;;;;13.40;12.00;;;;;;;3.35;71.64;99964.50;111313;1252;21950;-72
2024/04/19 02:42:50;;;;;;;15.30;13.90;;;;;;;3.35;71.60;99959.42;111230;1252;21997;-72
2024/04/19 02:45:20;;;;;;;18.70;13.10;;;;;;;3.38;71.46;99959.33;111224;1252;22438;-72
2024/04/19 02:47:49;;;;;;;14.80;12.60;;;;;;;3.40;71.40;99956.95;110993;1252;21955;-72
2024/04/19 02:50:18;;;;;;;14.40;12.40;;;;;;;3.42;71.23;99956.86;111271;1252;22040;-72
2024/04/19 02:52:46;;;;;;;12.90;11.60;;;;;;;3.43;71.35;99955.07;111293;1253;21963;-71
2024/04/19 02:55:15;;;;;;;10.40;9.00;;;;;;;3.43;71.19;99951.38;111335;1252;21940;-71
2024/04/19 02:57:45;;;;;;;9.40;8.30;;;;;;;3.41;71.09;99946.80;111260;1252;21948;-72
2024/04/19 03:00:34;;;;;;;12.20;9.10;;;;;;;3.38;71.04;99940.87;111271;1252;21942;-72
2024/04/19 03:03:04;;;;;;;12.00;9.00;;;;;;;3.38;70.94;99937.36;111272;1252;22718;-72
2024/04/19 03:05:32;;;;;;;15.70;10.60;;;;;;;3.37;70.85;99929.79;111277;1252;23073;-72
2024/04/19 03:08:03;;;;;;;13.80;9.50;;;;;;;3.35;70.91;99925.84;111222;1252;21989;-72
2024/04/19 03:10:38;;;;;;;11.70;10.40;;;;;;;3.35;70.93;99919.06;111296;1252;21939;-72
2024/04/19 03:13:09;;;;;;;12.60;10.90;;;;;;;3.35;70.71;99919.44;111293;1241;22924;-72
2024/04/19 03:15:38;;;;;;;16.40;11.10;;;;;;;3.33;70.66;99915.88;111237;1252;21955;-71
2024/04/19 03:18:07;;;;;;;14.60;9.90;;;;;;;3.32;70.80;99914.03;111301;1252;21950;-71
2024/04/19 03:20:36;;;;;;;11.90;10.30;;;;;;;3.32;70.74;99912.98;111305;1252;21955;-72
2024/04/19 03:23:05;;;;;;;12.20;10.00;;;;;;;3.31;70.69;99916.66;111245;1252;21983;-73
2024/04/19 03:25:36;;;;;;;11.00;9.30;;;;;;;3.29;70.60;99917.81;111270;1252;21952;-71
2024/04/19 03:28:05;;;;;;;11.00;9.80;;;;;;;3.28;70.79;99911.26;111248;1252;21953;-72
2024/04/19 03:30:36;;;;;;;14.80;9.10;;;;;;;3.29;70.74;99913.47;111213;1252;21970;-77
2024/04/19 03:33:04;;;;;;;11.50;8.50;;;;;;;3.29;70.80;99913.63;111522;1252;21980;-72
2024/04/19 03:35:41;;;;;;;8.20;6.90;;;;;;;3.33;70.77;99910.83;111260;1252;24501;-72
2024/04/19 03:38:14;;;;;;;12.40;8.00;;;;;;;3.33;70.69;99906.83;111266;1252;22745;-72
2024/04/19 03:40:55;;;;;;;15.30;7.40;;;;;;;3.35;70.72;99902.88;111300;1252;21960;-72
2024/04/19 03:43:32;;;;;;;9.90;6.90;;;;;;;3.37;70.50;99900.53;111310;1252;22128;-70
2024/04/19 03:46:00;;;;;;;10.40;7.20;;;;;;;3.41;70.48;99900.16;111308;1252;21955;-72
2024/04/19 03:48:30;;;;;;;8.60;7.60;;;;;;;3.43;70.25;99898.32;111260;1252;21953;-71
2024/04/19 03:50:59;;;;;;;9.70;7.70;;;;;;;3.46;70.17;99898.90;111293;1252;21960;-72
2024/04/19 03:53:28;;;;;;;9.40;7.50;;;;;;;3.48;70.14;99895.29;111352;1252;21948;-73
2024/04/19 03:55:56;;;;;;;8.70;7.60;;;;;;;3.52;70.05;99894.45;111323;1252;21955;-72
2024/04/19 03:58:25;;;;;;;11.60;8.10;;;;;;;3.53;69.91;99896.12;111312;1252;21953;-72
2024/04/19 04:00:54;;;;;;;10.60;7.60;;;;;;;3.57;69.86;99896.63;111294;1252;22110;-73
2024/04/19 04:03:24;;;;;;;10.10;8.30;;;;;;;3.61;69.82;99898.70;111293;1252;22043;-73
2024/04/19 04:05:53;;;;;;;12.90;8.60;;;;;;;3.64;69.71;99901.19;111246;1252;21957;-73
2024/04/19 04:08:21;;;;;;;10.50;8.10;;;;;;;3.66;69.62;99904.55;111330;1244;21952;-72
2024/04/19 04:10:51;;;;;;;17.30;9.50;;;;;;;3.69;69.53;99906.83;111294;1252;21970;-72
2024/04/19 04:13:20;;;;;;;13.70;9.20;;;;;;;3.73;69.47;99904.56;111021;1252;21963;-75
2024/04/19 04:15:49;;;;;;;11.60;8.70;;;;;;;3.74;69.39;99901.02;111228;1252;22023;-73
2024/04/19 04:18:18;;;;;;;13.80;7.80;;;;;;;3.77;69.29;99894.80;111234;1252;21942;-72
2024/04/19 04:20:47;;;;;;;9.80;8.20;;;;;;;3.80;69.36;99897.59;111309;1252;21948;-73
2024/04/19 04:23:16;;;;;;;10.20;8.00;;;;;;;3.84;69.29;99901.05;111210;1252;21986;-72
2024/04/19 04:25:45;;;;;;;10.30;7.60;;;;;;;3.85;69.22;99897.84;111269;1252;21997;-73
2024/04/19 04:28:13;;;;;;;10.10;9.00;;;;;;;3.89;69.09;99897.48;111233;1252;22150;-70
2024/04/19 04:30:42;;;;;;;12.20;8.30;;;;;;;3.93;69.09;99894.81;111253;1252;21987;-73
2024/04/19 04:33:11;;;;;;;10.20;8.10;;;;;;;3.97;69.16;99890.64;111400;1252;21950;-72
2024/04/19 04:35:40;;;;;;;10.30;7.70;;;;;;;4.02;68.99;99889.70;111069;1252;22176;-72
2024/04/19 04:38:09;;;;;;;11.10;8.00;;;;;;;4.08;68.84;99885.58;111036;1252;22655;-73
2024/04/19 04:40:39;;;;;;;11.30;8.10;;;;;;;4.14;68.81;99880.19;111279;1252;21955;-73
2024/04/19 04:43:07;;;;;;;12.20;9.00;;;;;;;4.21;68.57;99879.46;111306;1252;21947;-73
2024/04/19 04:45:36;;;;;;;10.40;8.50;;;;;;;4.30;68.19;99885.13;111305;1252;22044;-73
2024/04/19 04:48:06;;;;;;;10.10;7.90;;;;;;;4.38;68.05;99890.66;111241;1252;21953;-74
2024/04/19 04:50:35;;;;;;;14.90;10.40;;;;;;;4.43;67.91;99887.25;111258;1252;23016;-74
2024/04/19 04:53:04;;;;;;;16.10;10.80;;;;;;;4.47;67.87;99880.94;111302;1252;21963;-72
2024/04/19 04:55:33;;;;;;;17.10;11.20;;;;;;;4.50;67.75;99877.80;111286;1252;22718;-73
2024/04/19 04:58:04;;;;;;;17.30;11.40;;;;;;;4.56;67.83;99879.77;111247;1252;22041;-73
2024/04/19 05:00:33;;;;;;;17.80;10.30;;;;;;;4.63;67.72;99882.71;111308;1252;21953;-73
2024/04/19 05:03:05;;;;;;;17.90;12.20;;;;;;;4.70;67.44;99885.47;111288;1252;21961;-73
2024/04/19 05:05:34;;;;;;;15.30;10.00;;;;;;;4.79;67.45;99886.91;111279;1252;23009;-74
2024/04/19 05:08:04;;;;;;;12.40;9.60;;;;;;;4.91;67.45;99887.99;111383;1252;21957;-72
2024/04/19 05:10:32;;;;;;;9.20;8.10;;;;;;;5.08;67.49;99889.17;111454;1252;22109;-73
2024/04/19 05:13:02;;;;;;;10.90;8.20;;;;;;;5.23;66.83;99885.50;111429;1252;22098;-71
2024/04/19 05:15:31;;;;;;;11.40;8.80;;;;;;;5.34;66.25;99881.98;111354;1252;22392;-73
2024/04/19 05:18:00;;;;;;;11.80;8.30;;;;;;;5.38;65.91;99881.95;111368;1252;21955;-72
2024/04/19 05:20:29;;;;;;;10.40;8.90;;;;;;;5.41;65.67;99882.79;111304;1252;21949;-72
2024/04/19 05:22:58;;;;;;;12.30;9.20;;;;;;;5.50;65.57;99876.89;111296;1252;21956;-72
2024/04/19 05:25:27;;;;;;;13.60;9.50;;;;;;;5.61;65.33;99880.05;111382;1252;21951;-72
2024/04/19 05:27:56;;;;;;;16.50;11.60;;;;;;;5.72;65.21;99876.33;111033;1252;21963;-72
2024/04/19 05:30:27;;;;;;;16.30;12.10;;;;;;;5.84;64.89;99873.73;111271;1251;21961;-72
2024/04/19 05:32:58;;;;;;;14.10;9.90;;;;;;;5.96;64.58;99873.17;111370;1244;22019;-73
2024/04/19 05:35:27;;;;;;;14.70;9.60;;;;;;;6.03;64.59;99874.90;111353;1248;24347;-73
2024/04/19 05:37:59;;;;;;;12.40;9.40;;;;;;;6.11;64.75;99872.15;111347;1251;22041;-72
2024/04/19 05:40:28;;;;;;;;;;;;;;;6.23;64.49;99876.01;111290;1251;21919;-72
2024/04/19 05:42:57;;;;;;;12.80;8.50;;;;;;;6.26;64.15;99877.71;111267;1251;23608;-73
2024/04/19 05:45:26;;;;;;;13.40;9.40;;;;;;;6.34;64.04;99871.27;111364;1251;21970;-73
2024/04/19 05:47:54;;;;;;;9.60;7.50;;;;;;;6.42;63.35;99870.09;111357;1251;22103;-73
2024/04/19 05:50:24;;;;;;;12.70;8.00;;;;;;;6.50;63.03;99869.48;110995;1251;22019;-72
2024/04/19 05:52:53;;;;;;;10.80;8.00;;;;;;;6.59;62.68;99866.10;111308;1251;22126;-72
2024/04/19 05:55:22;;;;;;;12.30;8.80;;;;;;;6.67;62.68;99858.25;111461;1251;22752;-74
2024/04/19 05:57:50;;;;;;;16.20;8.00;;;;;;;6.77;62.73;99853.42;111494;1251;21964;-71
2024/04/19 06:00:20;;;;;;;10.40;8.20;;;;;;;6.81;62.48;99852.83;111370;1251;21950;-72
2024/04/19 06:02:49;;;;;;;10.60;8.80;;;;;;;6.84;62.36;99851.61;111354;1251;21957;-72
2024/04/19 06:05:18;;;;;;;11.30;8.40;;;;;;;6.83;62.13;99848.84;111440;1251;21986;-73
2024/04/19 06:07:46;;;;;;;10.90;8.90;;;;;;;6.82;61.97;99847.86;111088;1251;21952;-71
2024/04/19 06:10:16;;;;;;;10.90;8.60;;;;;;;6.82;61.96;99846.45;111183;1251;21955;-72
2024/04/19 06:12:45;;;;;;;10.90;8.00;;;;;;;6.94;62.29;99850.46;111383;1251;23674;-72
2024/04/19 06:15:14;;;;;;;9.90;8.20;;;;;;;7.19;62.23;99849.23;111380;1251;21944;-72
2024/04/19 06:17:43;;;;;;;9.40;8.00;;;;;;;7.60;61.73;99841.48;111459;1251;21943;-72
2024/04/19 06:20:11;;;;;;;8.60;6.60;;;;;;;7.98;60.89;99837.19;111378;1251;21954;-73
2024/04/19 06:22:40;;;;;;;9.30;6.80;;;;;;;8.25;59.81;99834.62;111372;1251;21952;-73
2024/04/19 06:25:09;;;;;;;7.80;6.50;;;;;;;8.42;59.11;99833.34;111337;1251;22044;-71
2024/04/19 06:27:38;;;;;;;9.10;7.10;;;;;;;8.50;58.46;99831.39;111426;1251;21952;-72
2024/04/19 06:30:08;;;;;;;9.90;6.50;;;;;;;8.54;58.39;99828.61;111372;1251;21946;-74
2024/04/19 06:32:37;;;;;;;9.80;7.10;;;;;;;8.64;58.52;99830.17;111381;1251;21989;-72
2024/04/19 06:35:08;;;;;;;7.40;6.40;;;;;;;8.95;58.06;99835.17;111407;1251;22417;-73
2024/04/19 06:37:37;;;;;;;10.60;6.80;;;;;;;9.37;57.31;99833.23;111332;1251;23129;-77
2024/04/19 06:40:07;;;;;;;9.70;5.80;;;;;;;9.78;56.42;99830.17;111609;1251;21963;-76
2024/04/19 06:42:36;;;;;;;6.60;5.80;;;;;;;10.24;55.83;99828.12;111645;1251;22439;-74
2024/04/19 06:45:06;;;;;;;7.60;5.60;;;;;;;10.67;54.14;99820.49;111633;1251;23630;-72
2024/04/19 06:47:35;;;;;;;12.20;6.20;;;;;;;11.06;53.91;99814.98;111320;1251;21956;-71
2024/04/19 06:50:04;;;;;;;10.70;5.80;;;;;;;11.37;52.60;99808.53;111747;1251;22740;-73
2024/04/19 06:52:33;;;;;;;17.50;5.30;;;;;;;11.67;51.76;99809.77;112629;1251;21954;-71
2024/04/19 06:55:02;;;;;;;5.80;5.00;;;;;;;12.06;51.44;99816.23;112328;1251;21949;-71
2024/04/19 06:57:31;;;;;;;7.80;5.00;;;;;;;12.31;49.80;99817.77;112518;1251;21979;-73
2024/04/19 07:00:00;;;;;;;5.90;4.80;;;;;;;12.46;49.40;99815.64;112571;1251;21958;-76
2024/04/19 07:02:50;;;;;;;9.00;5.40;;;;;;;12.83;49.25;99808.71;112525;1251;21922;-72
2024/04/19 07:05:19;;;;;;;7.20;5.50;;;;;;;13.29;48.84;99804.23;111453;1251;21953;-74
2024/04/19 07:07:51;;;;;;;6.20;5.00;;;;;;;13.33;47.44;99796.84;111454;1251;21966;-73
2024/04/19 07:10:22;;;;;;;7.90;5.60;;;;;;;13.05;47.74;99793.48;111356;1251;22032;-71
2024/04/19 07:12:52;;;;;;;9.90;6.10;;;;;;;12.76;47.49;99792.38;111450;1251;21968;-71
2024/04/19 07:15:21;;;;;;;8.60;6.00;;;;;;;12.45;48.21;99793.16;111438;1251;22029;-73
2024/04/19 07:17:51;;;;;;;12.80;7.40;;;;;;;12.17;48.89;99789.02;111321;1251;22011;-74
2024/04/19 07:20:21;;;;;;;14.30;6.50;;;;;;;11.84;48.97;99786.13;111379;1251;25149;-73
2024/04/19 07:22:50;;;;;;;6.70;5.60;;;;;;;11.54;49.26;99783.89;111334;1251;24226;-74
2024/04/19 07:25:18;;;;;;;12.30;6.50;;;;;;;11.22;49.92;99774.75;111287;1251;23443;-74
2024/04/19 07:27:47;;;;;;;7.10;6.40;;;;;;;10.96;50.72;99775.20;111391;1251;21949;-73
2024/04/19 07:30:16;;;;;;;7.50;5.80;;;;;;;10.70;50.94;99774.20;111378;1251;21948;-73
2024/04/19 07:32:45;;;;;;;16.40;7.80;;;;;;;10.47;51.61;99770.16;111416;1251;23621;-72
2024/04/19 07:35:15;;;;;;;12.00;7.50;;;;;;;10.33;52.18;99763.17;111310;1251;22737;-70
2024/04/19 07:37:44;;;;;;;10.40;7.60;;;;;;;10.21;52.34;99756.70;111332;1251;21950;-74
2024/04/19 07:40:13;;;;;;;8.80;7.20;;;;;;;10.11;52.51;99758.52;111380;1251;21945;-73
2024/04/19 07:42:42;;;;;;;9.20;7.80;;;;;;;10.01;52.71;99756.30;111391;1251;24083;-73
2024/04/19 07:45:12;;;;;;;11.90;7.80;;;;;;;9.88;53.09;99755.20;111362;1251;21959;-75
2024/04/19 07:47:41;;;;;;;8.10;7.10;;;;;;;9.84;53.45;99750.27;111434;1248;21954;-75
2024/04/19 07:50:10;;;;;;;10.60;7.60;;;;;;;9.93;53.54;99749.55;111596;1251;23611;-74
2024/04/19 07:52:39;;;;;;;8.00;6.80;;;;;;;10.04;53.10;99743.25;111373;1251;21958;-74
2024/04/19 07:55:08;;;;;;;11.90;7.90;;;;;;;10.38;53.32;99744.52;111610;1251;21948;-74
2024/04/19 07:57:37;;;;;;;8.60;6.30;;;;;;;10.80;52.18;99746.40;111297;1251;22981;-73
2024/04/19 08:00:12;;;;;;;8.50;6.20;;;;;;;10.92;51.52;99745.27;111421;1251;22681;-77
2024/04/19 08:02:41;;;;;;;8.70;7.90;;;;;;;11.06;51.42;99748.73;111117;1244;23010;-74
2024/04/19 08:05:11;;;;;;;12.10;7.10;;;;;;;11.17;50.66;99748.16;111085;1251;24171;-74
2024/04/19 08:07:40;;;;;;;13.00;7.40;;;;;;;11.13;50.33;99744.44;111380;1251;21940;-73
2024/04/19 08:10:15;;;;;;;8.70;6.70;;;;;;;11.06;50.66;99738.70;111285;1251;22032;-74
2024/04/19 08:12:45;;;;;;;10.30;8.60;;;;;;;11.03;50.73;99735.93;111679;1251;22530;-75
2024/04/19 08:15:14;;;;;;;9.40;7.70;;;;;;;11.18;50.80;99731.02;111628;1251;22023;-74
2024/04/19 08:17:43;;;;;;;8.10;6.30;;;;;;;11.35;50.08;99725.68;111337;1238;23086;-74
2024/04/19 08:20:12;;;;;;;10.50;6.80;;;;;;;11.47;49.75;99723.30;111364;1251;23039;-74
2024/04/19 08:22:41;;;;;;;6.70;5.50;;;;;;;11.87;49.47;99719.34;111420;1251;23673;-74
2024/04/19 08:25:10;;;;;;;6.80;6.10;;;;;;;12.48;48.35;99716.21;111343;1251;22019;-74
2024/04/19 08:27:39;;;;;;;6.90;6.20;;;;;;;13.03;46.58;99716.61;111365;1251;21963;-74
2024/04/19 08:30:10;;;;;;;8.40;6.10;;;;;;;13.44;46.15;99714.61;111382;1251;21954;-74
2024/04/19 08:32:38;;;;;;;8.10;5.40;;;;;;;13.90;44.63;99711.08;111379;1251;23512;-73
2024/04/19 08:35:07;;;;;;;8.70;6.20;;;;;;;14.22;43.90;99704.54;111416;1251;21956;-75
2024/04/19 08:37:36;;;;;;;9.30;6.90;;;;;;;14.44;43.82;99702.58;111350;1239;21953;-75
2024/04/19 08:40:11;;;;;;;5.50;4.50;;;;;;;14.45;42.92;99701.63;111328;1251;21958;-75
2024/04/19 08:42:40;;;;;;;9.90;4.10;;;;;;;14.14;43.15;99694.61;111648;1251;22140;-73
2024/04/19 08:45:13;;;;;;;10.50;5.20;;;;;;;14.31;43.63;99692.58;111324;1251;21951;-74
2024/04/19 08:47:42;;;;;;;6.20;5.30;;;;;;;14.73;43.19;99693.16;111312;1251;21956;-75
2024/04/19 08:50:12;;;;;;;7.20;4.90;;;;;;;14.84;42.07;99689.84;111424;1251;21955;-75
2024/04/19 08:52:47;;;;;;;5.80;4.70;;;;;;;14.59;42.03;99684.09;111364;1238;23001;-75
2024/04/19 08:55:38;;;;;;;7.40;4.10;;;;;;;14.43;42.59;99677.15;111058;1251;21952;-73
2024/04/19 08:58:07;;;;;;;5.30;4.20;;;;;;;14.41;42.56;99674.86;111366;1251;23004;-74
2024/04/19 09:00:36;;;;;;;4.80;4.20;;;;;;;14.16;42.81;99676.00;111348;1251;22177;-74
2024/04/19 09:03:05;;;;;;;4.30;3.80;;;;;;;13.91;43.01;99670.05;111395;1251;21946;-73
2024/04/19 09:05:35;;;;;;;5.10;4.40;;;;;;;13.65;43.69;99670.09;111304;1251;21951;-71
2024/04/19 09:08:07;;;;;;;4.60;3.90;;;;;;;13.41;44.35;99670.20;111304;1251;21968;-75
2024/04/19 09:10:36;;;;;;;7.00;4.80;;;;;;;13.18;44.60;99664.33;111298;1251;21966;-74
2024/04/19 09:13:05;;;;;;;6.10;4.60;;;;;;;13.01;45.07;99663.98;111299;1251;21962;-73
2024/04/19 09:15:36;;;;;;;7.10;5.70;;;;;;;13.02;45.39;99661.41;111367;1251;22230;-74
2024/04/19 09:18:06;;;;;;;7.90;6.00;;;;;;;13.11;45.57;99660.55;111329;1245;21955;-72
2024/04/19 09:20:34;;;;;;;7.80;5.10;;;;;;;13.10;45.09;99659.42;111387;1251;23689;-75
2024/04/19 09:23:03;;;;;;;6.50;4.90;;;;;;;13.00;45.05;99657.73;111052;1251;22663;-74
2024/04/19 09:25:32;;;;;;;7.80;5.30;;;;;;;12.94;45.26;99652.20;111278;1251;21950;-74
2024/04/19 09:28:01;;;;;;;5.60;4.90;;;;;;;12.88;45.03;99648.30;111358;1251;22005;-73
2024/04/19 09:30:31;;;;;;;6.60;5.30;;;;;;;12.75;45.30;99642.77;111356;1251;23601;-72
2024/04/19 09:33:00;;;;;;;11.20;7.10;;;;;;;12.62;45.48;99640.26;111132;1251;23709;-72
2024/04/19 09:35:30;;;;;;;8.00;6.70;;;;;;;12.54;45.37;99641.91;111351;1251;21953;-73
2024/04/19 09:38:00;;;;;;;13.00;9.30;;;;;;;12.38;45.57;99634.65;111334;1251;21956;-74
2024/04/19 09:40:34;;;;;;;6.90;5.60;;;;;;;12.32;46.20;99627.23;111077;1251;21949;-73
2024/04/19 09:43:08;;;;;;;9.80;5.90;;;;;;;12.47;46.32;99629.79;111113;1242;21954;-76
2024/04/19 09:45:43;;;;;;;9.00;6.30;;;;;;;12.53;45.40;99624.84;111330;1251;23006;-74
2024/04/19 09:48:17;;;;;;;6.90;6.30;;;;;;;12.45;45.39;99626.04;111088;1251;21998;-74
2024/04/19 09:50:51;;;;;;;6.90;6.20;;;;;;;12.27;45.85;99623.60;111363;1251;21920;-73
2024/04/19 09:53:31;;;;;;;9.70;6.50;;;;;;;12.13;46.58;99618.55;111340;1251;21958;-73
2024/04/19 09:56:27;;;;;;;12.80;8.70;;;;;;;11.96;47.27;99616.30;111353;1251;21937;-73
2024/04/19 09:58:58;;;;;;;8.20;6.00;;;;;;;11.66;48.44;99618.21;111324;1251;21952;-73
2024/04/19 10:01:28;;;;;;;8.60;5.60;;;;;;;11.35;49.87;99605.10;111190;1251;23743;-73
2024/04/19 10:03:58;;;;;;;8.50;5.00;;;;;;;11.03;50.54;99603.64;111570;1251;23721;-73
2024/04/19 10:06:31;;;;;;;7.90;5.10;;;;;;;10.70;51.10;99597.25;111145;1251;21995;-73
2024/04/19 10:09:04;;;;;;;9.70;5.00;;;;;;;10.49;52.28;99585.55;111107;1251;23683;-73
2024/04/19 10:11:33;;;;;;;16.60;5.40;;;;;;;10.48;53.24;99581.97;111134;1251;23579;-73
2024/04/19 10:14:02;;;;;;;6.70;4.70;;;;;;;10.56;53.57;99575.65;111082;1251;24134;-73
2024/04/19 10:16:32;;;;;;;10.30;7.60;;;;;;;10.64;53.06;99569.37;111513;1251;23019;-73
2024/04/19 10:19:01;;;;;;;10.10;8.90;;;;;;;10.82;53.86;99563.98;111401;1251;23010;-72
2024/04/19 10:21:33;;;;;;;10.40;9.40;;;;;;;11.09;53.78;99559.27;111332;1251;22750;-73
2024/04/19 10:24:16;;;;;;;9.80;8.90;;;;;;;11.29;54.29;99551.21;111019;1238;23009;-74
2024/04/19 10:26:53;;;;;;;13.10;9.10;;;;;;;11.54;54.21;99540.25;111689;1251;21953;-74
2024/04/19 10:29:25;;;;;;;11.60;10.40;;;;;;;11.84;53.35;99537.23;111699;1251;21962;-75
2024/04/19 10:31:57;;;;;;;15.00;10.30;;;;;;;12.14;53.01;99528.80;111377;1251;23584;-75
2024/04/19 10:34:26;;;;;;;;;;;;;;;12.45;51.98;99517.27;111587;1251;21944;-72
2024/04/19 10:36:55;;;;;;;10.90;8.40;;;;;;;12.71;50.80;99513.87;111562;1245;23040;-74
2024/04/19 10:39:24;;;;;;;8.00;6.40;;;;;;;13.05;49.42;99510.02;111622;1251;24104;-74
2024/04/19 10:41:55;;;;;;;8.00;6.50;;;;;;;13.39;48.65;99503.28;111594;1251;21960;-74
2024/04/19 10:44:24;;;;;;;16.50;9.00;;;;;;;13.55;47.51;99502.33;111555;1251;23700;-75
2024/04/19 10:46:52;;;;;;;10.70;8.00;;;;;;;13.58;47.28;99503.10;111582;1251;23620;-75
2024/04/19 10:49:21;;;;;;;8.40;6.90;;;;;;;13.47;45.85;99496.00;111598;1251;23631;-74
2024/04/19 10:51:51;;;;;;;8.60;5.40;;;;;;;13.21;45.93;99491.23;111575;1251;23727;-76
2024/04/19 10:54:20;;;;;;;9.40;5.20;;;;;;;13.08;46.42;99486.08;111375;1251;21956;-75
2024/04/19 10:56:49;;;;;;;5.50;4.50;;;;;;;12.85;45.77;99482.67;111618;1251;23690;-75
2024/04/19 10:59:18;;;;;;;4.80;3.80;;;;;;;12.53;44.86;99477.90;111583;1251;21952;-76
2024/04/19 11:01:48;;;;;;;6.70;4.30;;;;;;;12.17;44.67;99468.29;111582;1251;22942;-75
2024/04/19 11:04:16;;;;;;;6.00;5.20;;;;;;;11.96;45.14;99469.55;111617;1251;21955;-75
2024/04/19 11:06:45;;;;;;;6.20;4.60;;;;;;;11.88;45.55;99468.95;111348;1251;22443;-74
2024/04/19 11:09:16;;;;;;;6.60;5.10;;;;;;;11.85;45.63;99462.52;111577;1251;23058;-75
2024/04/19 11:11:46;;;;;;;5.80;4.60;;;;;;;11.77;45.16;99462.70;111576;1251;21961;-75
2024/04/19 11:14:18;;;;;;;8.20;5.30;;;;;;;11.62;45.99;99463.03;111343;1251;21960;-75
2024/04/19 11:16:48;;;;;;;9.30;7.30;;;;;;;11.50;47.17;99469.32;111622;1251;23016;-76
2024/04/19 11:19:17;;;;;;;8.00;5.20;;;;;;;11.26;48.18;99463.55;111672;1251;21952;-76
2024/04/19 11:21:47;;;;;;;5.50;4.90;;;;;;;10.95;48.87;99457.60;111705;1251;22657;-75
2024/04/19 11:24:18;;;;;;;7.10;6.40;;;;;;;10.82;50.03;99452.02;111623;1251;21970;-74
2024/04/19 11:26:47;;;;;;;10.40;9.30;;;;;;;10.85;51.10;99449.59;111695;1251;23647;-74
2024/04/19 11:29:16;;;;;;;8.80;7.10;;;;;;;10.99;51.25;99441.03;111353;1251;21988;-75
2024/04/19 11:31:46;;;;;;;9.90;8.90;;;;;;;11.13;51.84;99437.35;111371;1251;22200;-74
2024/04/19 11:34:15;;;;;;;9.70;8.10;;;;;;;11.30;52.37;99437.08;111568;1251;22133;-74
2024/04/19 11:36:45;;;;;;;9.00;7.10;;;;;;;11.40;50.87;99425.92;111606;1251;21980;-75
2024/04/19 11:39:14;;;;;;;10.80;7.40;;;;;;;11.50;50.16;99429.38;111543;1251;23084;-73